Time;durP1;ratioP1;P1;durP2;ratioP2;P2;SDS_P1;SDS_P2;PMS_P1;PMS_P2;Temp;Humidity;BMP_temperature;BMP_pressure;BME280_temperature;BME280_humidity;BME280_pressure;Samples;Min_cycle;Max_cycle;Signal;HPM_P1;HPM_P2
2023/05/03 00:03:08;;;;;;;6.37;5.03;;;;;;;13.23;57.00;99576.31;6973365;28;20240;-89
2023/05/03 00:06:30;;;;;;;7.00;4.90;;;;;;;13.54;55.53;99568.47;6974252;28;20377;-88
2023/05/03 00:09:53;;;;;;;5.80;5.17;;;;;;;13.12;56.73;99577.75;6974419;28;20710;-88
2023/05/03 00:13:14;;;;;;;8.87;5.37;;;;;;;13.19;56.17;99559.66;6974446;28;20215;-88
2023/05/03 00:16:36;;;;;;;8.43;5.20;;;;;;;13.53;56.11;99569.53;6975150;28;20247;-88
2023/05/03 00:19:58;;;;;;;7.10;5.40;;;;;;;13.68;55.62;99562.88;6975285;28;20368;-89
2023/05/03 00:23:20;;;;;;;7.07;5.17;;;;;;;13.87;55.13;99572.09;6975102;28;20208;-88
2023/05/03 00:26:43;;;;;;;6.77;4.80;;;;;;;13.86;54.49;99575.84;6983664;28;20743;-88
2023/05/03 00:30:05;;;;;;;6.03;5.00;;;;;;;13.93;53.94;99563.13;6985282;28;20242;-88
2023/05/03 00:33:27;;;;;;;10.97;8.23;;;;;;;13.73;54.15;99543.28;6980187;28;20229;-89
2023/05/03 00:36:48;;;;;;;5.70;5.07;;;;;;;13.80;54.24;99546.84;6980864;28;20303;-89
2023/05/03 00:40:10;;;;;;;7.27;5.20;;;;;;;13.74;54.54;99566.66;6980645;28;20344;-89
2023/05/03 00:43:36;;;;;;;5.07;4.57;;;;;;;14.02;53.57;99570.84;6980448;28;20613;-88
2023/05/03 00:46:58;;;;;;;6.20;4.80;;;;;;;13.78;53.97;99552.47;6979340;28;20229;-88
2023/05/03 00:50:20;;;;;;;6.93;4.83;;;;;;;13.60;54.67;99554.09;6978845;28;20194;-88
2023/05/03 00:53:42;;;;;;;6.30;4.97;;;;;;;12.84;56.77;99492.22;6978531;28;20299;-88
2023/05/03 00:57:04;;;;;;;7.00;5.03;;;;;;;13.61;55.51;99547.66;6979357;28;20718;-89
2023/05/03 01:00:37;;;;;;;6.20;4.30;;;;;;;13.45;56.24;99561.59;6979321;28;20277;-88
2023/05/03 01:04:00;;;;;;;4.77;4.30;;;;;;;13.66;55.11;99553.28;6979341;28;20258;-89
2023/05/03 01:07:27;;;;;;;7.13;4.87;;;;;;;13.45;56.37;99556.19;6980075;28;20200;-89
2023/05/03 01:10:53;;;;;;;5.20;4.70;;;;;;;13.55;55.33;99548.47;6980037;28;20192;-88
2023/05/03 01:14:20;;;;;;;7.17;5.00;;;;;;;13.04;56.35;99558.94;6978763;28;20730;-88
2023/05/03 01:17:50;;;;;;;6.73;4.67;;;;;;;13.11;57.24;99540.03;6979104;28;20306;-88
2023/05/03 01:21:13;;;;;;;5.13;4.60;;;;;;;13.17;56.97;99540.03;6980030;28;20409;-88
2023/05/03 01:24:37;;;;;;;5.60;4.57;;;;;;;12.72;56.96;99474.91;6978996;28;20232;-88
2023/05/03 01:28:00;;;;;;;6.30;3.97;;;;;;;13.46;56.55;99541.59;6979034;28;20936;-89
2023/05/03 01:31:26;;;;;;;5.23;4.47;;;;;;;13.59;55.55;99528.06;6978084;28;20204;-88
2023/05/03 01:34:51;;;;;;;8.47;4.80;;;;;;;13.51;56.16;99533.69;6978306;28;20254;-88
2023/05/03 01:38:13;;;;;;;4.73;4.23;;;;;;;13.93;54.46;99520.56;6985879;28;20227;-91
2023/05/03 01:41:35;;;;;;;4.80;4.20;;;;;;;13.71;54.45;99524.53;6972144;28;20267;-89
2023/05/03 01:44:58;;;;;;;6.10;4.50;;;;;;;13.31;54.91;99506.56;6955023;28;20259;-88
2023/05/03 01:48:20;;;;;;;5.13;4.20;;;;;;;12.69;56.40;99446.38;6977616;28;20211;-89
2023/05/03 01:51:41;;;;;;;6.97;4.23;;;;;;;13.49;55.31;99542.00;6976866;28;20269;-88
2023/05/03 01:55:03;;;;;;;8.00;4.13;;;;;;;13.39;55.35;99532.63;6978544;28;20751;-88
2023/05/03 01:58:25;;;;;;;4.87;4.40;;;;;;;12.62;55.67;99406.81;6978727;28;20206;-88
2023/05/03 02:01:48;;;;;;;6.50;4.20;;;;;;;12.82;55.67;99440.19;6978253;28;20218;-89
2023/05/03 02:05:10;;;;;;;6.20;5.10;;;;;;;12.66;56.20;99503.59;6978243;28;20321;-89
2023/05/03 02:08:32;;;;;;;4.77;4.27;;;;;;;12.87;56.26;99549.47;6975153;28;20210;-89
2023/05/03 02:11:54;;;;;;;6.27;4.30;;;;;;;12.20;58.88;99536.81;6976135;28;20338;-88
2023/05/03 02:15:18;;;;;;;5.33;4.67;;;;;;;12.69;58.36;99532.13;6976652;28;20231;-88
2023/05/03 02:18:43;;;;;;;5.27;4.20;;;;;;;12.93;56.71;99540.53;6976936;28;20212;-88
2023/05/03 02:22:05;;;;;;;7.43;4.53;;;;;;;13.01;56.26;99540.41;6978112;28;20694;-88
2023/05/03 02:25:26;;;;;;;4.60;4.20;;;;;;;12.84;56.72;99540.94;6978360;28;20361;-89
2023/05/03 02:28:48;;;;;;;4.53;3.93;;;;;;;12.43;56.28;99486.00;6978090;28;20247;-88
2023/05/03 02:32:09;;;;;;;5.00;4.50;;;;;;;12.45;55.87;99502.88;6977356;28;20577;-89
2023/05/03 02:35:32;;;;;;;5.40;4.90;;;;;;;11.99;57.15;99459.31;6977302;28;20254;-89
2023/05/03 02:38:54;;;;;;;5.03;4.53;;;;;;;11.92;57.85;99495.47;6977065;28;20213;-91
2023/05/03 02:42:16;;;;;;;5.90;4.27;;;;;;;11.95;58.18;99468.88;6979251;28;20209;-91
2023/05/03 02:45:37;;;;;;;6.27;4.57;;;;;;;11.71;58.12;99499.03;6979964;28;20309;-91
2023/05/03 02:48:59;;;;;;;6.50;4.67;;;;;;;11.39;59.09;99444.72;6976105;28;20209;-91
2023/05/03 02:52:22;;;;;;;7.77;4.90;;;;;;;11.77;58.18;99475.81;6976337;28;20749;-92
2023/05/03 02:55:44;;;;;;;5.60;5.10;;;;;;;12.45;57.65;99546.16;6976879;28;20311;-91
2023/05/03 02:59:05;;;;;;;5.50;5.00;;;;;;;12.45;57.18;99535.34;6977142;28;20664;-90
2023/05/03 03:02:27;;;;;;;6.37;3.97;;;;;;;12.11;55.49;99456.91;6976404;28;20218;-92
2023/05/03 03:05:49;;;;;;;6.33;4.93;;;;;;;11.10;58.23;99506.94;6977176;28;20316;-92
2023/05/03 03:09:12;;;;;;;5.20;4.50;;;;;;;11.09;57.98;99433.22;6977143;28;20205;-91
2023/05/03 03:12:35;;;;;;;5.27;4.43;;;;;;;10.89;58.24;99440.31;6976902;28;20845;-91
2023/05/03 03:15:57;;;;;;;5.77;4.40;;;;;;;11.53;57.81;99508.59;6976836;28;20226;-91
2023/05/03 03:19:52;;;;;;;5.43;4.90;;;;;;;11.64;58.25;99529.72;6975131;28;20253;-92
2023/05/03 03:23:14;;;;;;;7.97;5.13;;;;;;;11.34;57.65;99457.97;6977158;28;20182;-91
2023/05/03 03:26:37;;;;;;;5.17;4.63;;;;;;;11.47;58.21;99495.88;6989008;28;20234;-92
2023/05/03 03:29:59;;;;;;;7.30;4.97;;;;;;;11.57;58.14;99504.50;6994448;28;20212;-91
2023/05/03 03:33:21;;;;;;;6.53;5.33;;;;;;;11.46;57.65;99475.31;6977024;28;20210;-90
2023/05/03 03:36:42;;;;;;;8.73;4.90;;;;;;;11.34;57.79;99504.69;6976326;28;20241;-91
2023/05/03 03:40:07;;;;;;;5.43;4.40;;;;;;;11.17;57.30;99443.06;6978661;28;20202;-91
2023/05/03 03:43:30;;;;;;;5.37;4.77;;;;;;;11.30;57.97;99553.88;6977998;28;20198;-91
2023/05/03 03:46:52;;;;;;;5.40;4.70;;;;;;;10.86;58.78;99467.66;6978211;28;20233;-92
2023/05/03 03:50:13;;;;;;;5.90;5.17;;;;;;;10.73;58.97;99463.97;6985161;28;20205;-91
2023/05/03 03:53:35;;;;;;;6.00;4.63;;;;;;;10.73;58.01;99424.34;6979441;28;20206;-91
2023/05/03 03:56:57;;;;;;;5.97;5.47;;;;;;;11.08;57.74;99484.69;6958821;28;20234;-92
2023/05/03 04:00:20;;;;;;;6.47;5.87;;;;;;;10.86;57.24;99423.66;6951096;28;20210;-91
2023/05/03 04:03:45;;;;;;;8.63;7.23;;;;;;;11.22;56.29;99484.63;6956739;28;20194;-91
2023/05/03 04:07:07;;;;;;;4.50;4.10;;;;;;;10.71;56.10;99436.34;6976757;28;20236;-92
2023/05/03 04:10:30;;;;;;;7.43;4.83;;;;;;;11.02;57.03;99529.47;6970074;28;20214;-91
2023/05/03 04:13:52;;;;;;;5.47;4.60;;;;;;;11.01;57.65;99516.16;6975559;28;20213;-92
2023/05/03 04:17:21;;;;;;;5.60;5.00;;;;;;;11.43;56.99;99552.16;6977215;28;20233;-92
2023/05/03 04:25:00;;;;;;;5.50;5.00;;;;;;;10.35;56.84;99466.00;7013574;22;20234;-83
2023/05/03 04:28:21;;;;;;;6.47;4.23;;;;;;;11.43;57.46;99571.03;6996419;28;20202;-83
2023/05/03 04:31:43;;;;;;;4.73;4.30;;;;;;;10.90;56.68;99471.63;6996234;28;20288;-83
2023/05/03 04:35:09;;;;;;;6.70;5.23;;;;;;;11.19;56.92;99544.41;6994734;28;20234;-84
2023/05/03 04:38:31;;;;;;;5.30;4.80;;;;;;;10.88;56.76;99489.91;6996550;28;20263;-84
2023/05/03 04:41:53;;;;;;;7.40;5.10;;;;;;;9.74;57.95;99371.25;7001428;28;20205;-84
2023/05/03 04:45:14;;;;;;;8.50;5.50;;;;;;;11.02;57.97;99515.13;6997513;28;20259;-83
2023/05/03 04:48:36;;;;;;;7.13;5.63;;;;;;;11.01;57.48;99494.59;6997103;28;20203;-86
2023/05/03 04:51:59;;;;;;;5.87;4.87;;;;;;;10.70;55.85;99421.19;6994671;28;20558;-84
2023/05/03 04:55:21;;;;;;;5.00;4.50;;;;;;;11.55;55.86;99555.16;6995133;28;20209;-86
2023/05/03 04:58:43;;;;;;;6.00;4.80;;;;;;;10.88;55.19;99460.22;6996988;28;20222;-87
2023/05/03 05:02:05;;;;;;;6.70;5.10;;;;;;;11.42;55.65;99563.97;6997644;28;20238;-93
2023/05/03 05:05:26;;;;;;;8.17;5.07;;;;;;;11.42;55.55;99533.44;6999337;28;20203;-91
2023/05/03 05:08:50;;;;;;;5.20;4.70;;;;;;;10.91;55.54;99449.03;6999013;28;20209;-89
2023/05/03 05:12:21;;;;;;;6.90;5.70;;;;;;;10.94;56.37;99482.88;7007618;28;20205;-89
2023/05/03 05:15:42;;;;;;;8.00;6.20;;;;;;;11.65;56.66;99526.84;7027797;28;20208;-86
2023/05/03 05:19:05;;;;;;;8.67;5.80;;;;;;;11.82;56.58;99566.06;7000368;28;20213;-83
2023/05/03 05:22:27;;;;;;;6.33;5.50;;;;;;;12.37;55.11;99527.34;6999792;28;20205;-83
2023/05/03 05:25:50;;;;;;;9.43;6.37;;;;;;;12.00;54.25;99441.25;7000671;28;20653;-84
2023/05/03 05:29:12;;;;;;;6.33;5.50;;;;;;;13.21;54.13;99587.34;7021076;28;20561;-83
2023/05/03 05:32:33;;;;;;;6.20;5.60;;;;;;;13.28;53.15;99542.16;7015454;28;20201;-84
2023/05/03 05:35:55;;;;;;;7.13;6.13;;;;;;;13.54;52.27;99544.09;6996209;28;20195;-84
2023/05/03 05:39:17;;;;;;;6.13;5.57;;;;;;;14.70;50.74;99602.91;7000128;28;20212;-83
2023/05/03 05:42:41;;;;;;;6.60;5.70;;;;;;;13.81;49.81;99454.47;7001096;28;20294;-84
2023/05/03 05:46:02;;;;;;;7.97;6.27;;;;;;;14.36;51.19;99529.09;7001698;28;20619;-84
2023/05/03 05:49:24;;;;;;;6.77;6.03;;;;;;;15.28;49.85;99599.19;7001501;28;20234;-83
2023/05/03 05:52:45;;;;;;;7.47;5.70;;;;;;;15.23;48.35;99511.25;7000535;28;20253;-83
2023/05/03 05:56:07;;;;;;;7.07;6.37;;;;;;;14.61;51.42;99543.66;6999349;28;20206;-83
2023/05/03 05:59:30;;;;;;;8.07;6.67;;;;;;;14.67;51.39;99530.06;6999684;28;20210;-83
2023/05/03 06:02:52;;;;;;;9.80;8.30;;;;;;;14.64;52.44;99595.63;6996762;28;20222;-86
2023/05/03 06:06:17;;;;;;;10.30;7.37;;;;;;;14.91;50.97;99504.06;7000033;28;20214;-83
2023/05/03 06:09:38;;;;;;;9.47;7.50;;;;;;;15.74;49.54;99542.72;6991056;28;20203;-86
2023/05/03 06:13:00;;;;;;;10.47;7.03;;;;;;;15.65;49.39;99489.69;7002937;28;20582;-82
2023/05/03 06:16:23;;;;;;;10.50;7.63;;;;;;;15.87;51.01;99590.75;6999411;28;20209;-82
2023/05/03 06:19:47;;;;;;;11.23;7.57;;;;;;;15.75;50.22;99522.63;6999271;28;20232;-83
2023/05/03 06:23:09;;;;;;;8.13;7.23;;;;;;;16.48;48.55;99499.16;6998941;28;20217;-82
2023/05/03 06:26:30;;;;;;;9.70;8.70;;;;;;;17.50;47.49;99589.94;6999064;28;20658;-82
2023/05/03 06:29:52;;;;;;;9.50;8.50;;;;;;;16.83;47.58;99465.66;6999532;28;20209;-82
2023/05/03 06:33:15;;;;;;;13.17;9.00;;;;;;;17.36;47.51;99586.53;6985267;28;20202;-82
2023/05/03 06:36:39;;;;;;;11.77;8.10;;;;;;;17.73;47.63;99592.75;6992773;28;20221;-83
2023/05/03 06:40:01;;;;;;;12.30;9.23;;;;;;;17.43;47.89;99584.59;7000269;28;20545;-82
2023/05/03 06:43:22;;;;;;;12.60;10.03;;;;;;;16.80;47.16;99506.16;7014546;28;20630;-83
2023/05/03 06:46:44;;;;;;;13.37;10.53;;;;;;;14.22;54.21;99497.63;7008125;28;20198;-83
2023/05/03 06:50:08;;;;;;;9.57;8.13;;;;;;;16.66;49.94;99586.31;6998148;28;20212;-82
2023/05/03 06:53:30;;;;;;;9.77;8.37;;;;;;;15.57;49.02;99423.88;6999592;28;20210;-90
2023/05/03 06:56:51;;;;;;;12.33;8.90;;;;;;;15.08;52.08;99514.25;6999353;28;20232;-84
2023/05/03 07:00:14;;;;;;;13.97;8.83;;;;;;;16.20;49.62;99453.38;7001157;28;20207;-90
2023/05/03 07:03:37;;;;;;;12.23;9.33;;;;;;;16.09;49.46;99515.84;6998238;28;20225;-85
2023/05/03 07:07:00;;;;;;;11.13;8.37;;;;;;;15.34;50.71;99380.16;6998267;28;20289;-84
2023/05/03 07:10:22;;;;;;;10.73;9.53;;;;;;;16.80;49.33;99587.84;6998199;28;20216;-84
2023/05/03 07:13:43;;;;;;;10.00;8.90;;;;;;;16.62;49.70;99574.19;6997850;28;20231;-85
2023/05/03 07:17:05;;;;;;;11.13;8.40;;;;;;;16.61;49.65;99461.75;6987902;28;20317;-85
2023/05/03 07:20:27;;;;;;;9.87;8.37;;;;;;;17.21;46.78;99406.22;6989738;28;20209;-84
2023/05/03 07:23:50;;;;;;;10.63;7.70;;;;;;;16.53;47.37;99398.59;6996393;28;20226;-84
2023/05/03 07:27:14;;;;;;;11.33;9.23;;;;;;;16.99;47.24;99458.75;6997126;28;20226;-84
2023/05/03 07:30:35;;;;;;;9.90;8.93;;;;;;;15.70;50.46;99410.97;6998714;28;20205;-86
2023/05/03 07:33:57;;;;;;;11.17;8.63;;;;;;;17.52;45.69;99405.16;6997874;28;20217;-84
2023/05/03 07:37:20;;;;;;;9.97;8.63;;;;;;;17.03;47.65;99520.72;6977918;28;20234;-85
2023/05/03 07:40:43;;;;;;;11.50;8.67;;;;;;;16.56;50.10;99545.16;6975039;28;20196;-85
2023/05/03 07:44:05;;;;;;;10.80;8.27;;;;;;;16.92;48.36;99479.81;6998468;28;20202;-85
2023/05/03 07:47:27;;;;;;;10.93;9.00;;;;;;;16.74;49.74;99543.28;6998776;28;20210;-85
2023/05/03 07:50:49;;;;;;;10.60;8.60;;;;;;;15.74;51.75;99454.88;6998397;28;20202;-85
2023/05/03 07:54:10;;;;;;;9.37;8.43;;;;;;;15.77;50.74;99433.53;6995507;28;20199;-84
2023/05/03 07:57:33;;;;;;;9.67;8.73;;;;;;;16.75;48.53;99455.06;6997915;28;20252;-84
2023/05/03 08:00:55;;;;;;;10.03;8.43;;;;;;;17.06;48.66;99501.19;7021674;28;20248;-84
2023/05/03 08:04:17;;;;;;;10.93;8.70;;;;;;;17.42;48.44;99536.59;7003861;28;20286;-84
2023/05/03 08:07:38;;;;;;;12.03;8.70;;;;;;;16.63;50.95;99548.66;6996352;28;20208;-84
2023/05/03 08:11:00;;;;;;;10.07;8.03;;;;;;;17.32;48.69;99503.56;6991239;28;20203;-84
2023/05/03 08:14:23;;;;;;;8.70;7.77;;;;;;;17.84;45.91;99376.47;6982303;28;20209;-84
2023/05/03 08:17:45;;;;;;;9.43;7.67;;;;;;;17.50;45.88;99328.19;6997849;28;20222;-85
2023/05/03 08:21:08;;;;;;;11.17;8.27;;;;;;;17.67;46.01;99389.13;6997215;28;20209;-84
2023/05/03 08:24:30;;;;;;;8.00;7.03;;;;;;;20.00;43.38;99525.50;6997418;28;20656;-85
2023/05/03 08:27:51;;;;;;;8.77;7.90;;;;;;;19.45;41.64;99433.41;6997469;28;20332;-84
2023/05/03 08:31:15;;;;;;;8.50;7.70;;;;;;;18.43;45.52;99505.34;6997768;28;20679;-84
2023/05/03 08:34:37;;;;;;;8.03;7.23;;;;;;;19.74;43.14;99495.22;6997680;28;20193;-84
2023/05/03 08:37:58;;;;;;;8.67;7.80;;;;;;;18.91;44.33;99532.34;6997254;28;20222;-84
2023/05/03 08:41:22;;;;;;;8.57;7.70;;;;;;;18.46;46.46;99472.09;6997593;28;20201;-84
2023/05/03 08:44:48;;;;;;;8.90;8.10;;;;;;;17.73;46.91;99431.84;6990817;28;20243;-83
2023/05/03 08:48:11;;;;;;;9.17;8.27;;;;;;;18.46;44.45;99394.81;7001381;28;20340;-84
2023/05/03 08:51:34;;;;;;;8.20;7.40;;;;;;;20.69;41.96;99529.63;7002921;28;20830;-84
2023/05/03 08:54:56;;;;;;;8.37;7.63;;;;;;;20.62;41.56;99479.63;7001586;28;20209;-85
2023/05/03 08:58:17;;;;;;;8.53;7.73;;;;;;;21.02;40.80;99499.38;7002076;28;20265;-85
2023/05/03 09:01:40;;;;;;;8.03;7.23;;;;;;;20.62;41.54;99535.28;6993641;28;20242;-85
2023/05/03 09:05:04;;;;;;;8.77;7.87;;;;;;;20.07;42.81;99517.16;7002282;28;20227;-85
2023/05/03 09:08:28;;;;;;;9.43;7.40;;;;;;;20.03;41.04;99437.38;7002018;28;20209;-85
2023/05/03 09:11:49;;;;;;;8.57;7.70;;;;;;;19.31;44.98;99519.53;6983573;28;20216;-85
2023/05/03 09:15:21;;;;;;;8.83;6.90;;;;;;;20.18;41.08;99425.88;7001564;28;20233;-85
2023/05/03 09:18:57;;;;;;;8.03;7.20;;;;;;;20.72;41.02;99449.63;7001521;28;20255;-85
2023/05/03 09:22:22;;;;;;;8.70;7.87;;;;;;;20.55;41.26;99479.84;6985613;28;20234;-85
2023/05/03 09:25:45;;;;;;;8.80;6.87;;;;;;;20.24;42.25;99556.31;7001439;28;20221;-85
2023/05/03 09:29:07;;;;;;;7.83;7.03;;;;;;;19.40;42.57;99430.59;7001634;28;20656;-85
2023/05/03 09:32:47;;;;;;;7.20;6.47;;;;;;;21.35;40.96;99514.63;6999702;28;20211;-85
2023/05/03 09:36:09;;;;;;;8.57;7.67;;;;;;;20.35;41.17;99465.81;6999903;28;20224;-85
2023/05/03 09:39:33;;;;;;;10.03;8.43;;;;;;;19.35;43.74;99433.22;7000212;28;20228;-85
2023/05/03 09:43:08;;;;;;;7.50;6.80;;;;;;;21.75;40.07;99486.78;7000044;28;20235;-86
2023/05/03 09:46:31;;;;;;;8.83;7.87;;;;;;;20.06;41.32;99401.34;6999217;28;20208;-88
2023/05/03 09:49:52;;;;;;;7.57;6.80;;;;;;;21.25;41.11;99456.88;6975641;28;20235;-85
2023/05/03 09:53:17;;;;;;;10.20;7.77;;;;;;;21.57;38.53;99424.84;6972021;28;20206;-84
2023/05/03 09:56:41;;;;;;;7.77;6.97;;;;;;;22.91;36.29;99384.78;6971609;28;20247;-83
2023/05/03 10:00:09;;;;;;;8.07;7.30;;;;;;;23.04;36.60;99440.13;6971844;28;20749;-84
2023/05/03 10:03:35;;;;;;;10.80;7.30;;;;;;;22.32;38.21;99518.88;6970777;28;20215;-84
2023/05/03 10:07:01;;;;;;;8.40;7.07;;;;;;;21.19;40.37;99523.75;6971605;28;20211;-83
2023/05/03 10:10:23;;;;;;;7.53;6.83;;;;;;;21.65;40.56;99525.91;6937869;28;20203;-84
2023/05/03 10:13:47;;;;;;;7.30;6.47;;;;;;;22.33;38.48;99443.59;6989425;28;20582;-83
2023/05/03 10:17:14;;;;;;;7.60;6.73;;;;;;;22.45;37.34;99455.25;6999174;28;20583;-83
2023/05/03 10:20:39;;;;;;;8.33;7.50;;;;;;;21.95;38.54;99511.69;6998876;28;20661;-83
2023/05/03 10:24:11;;;;;;;8.50;7.70;;;;;;;20.38;40.11;99417.94;6998915;28;20228;-84
2023/05/03 10:27:41;;;;;;;7.50;6.80;;;;;;;21.58;39.54;99442.97;6999311;28;20682;-87
2023/05/03 10:31:46;;;;;;;7.50;6.80;;;;;;;20.77;39.65;99384.75;6999369;28;20216;-87
2023/05/03 10:35:18;;;;;;;7.80;7.00;;;;;;;21.77;37.56;99501.91;6999705;28;20222;-89
2023/05/03 10:38:40;;;;;;;6.23;5.60;;;;;;;21.88;36.53;99335.34;7001019;28;20696;-89
2023/05/03 10:42:03;;;;;;;7.93;7.00;;;;;;;20.58;39.81;99336.81;6999103;28;20209;-85
2023/05/03 10:45:38;;;;;;;7.73;7.03;;;;;;;21.07;37.72;99313.00;6998613;28;20218;-87
2023/05/03 10:49:30;;;;;;;7.00;6.30;;;;;;;22.95;36.40;99416.97;6998508;28;20206;-84
2023/05/03 10:52:52;;;;;;;6.83;6.23;;;;;;;21.98;37.67;99409.56;6985534;28;20292;-86
2023/05/03 10:56:14;;;;;;;8.30;7.50;;;;;;;20.67;37.89;99315.28;6999180;28;20208;-87
2023/05/03 10:59:52;;;;;;;7.97;7.20;;;;;;;21.82;37.76;99443.47;6999190;28;20704;-87
2023/05/03 11:03:42;;;;;;;6.10;5.37;;;;;;;22.78;36.22;99394.34;7000189;28;20563;-85
2023/05/03 11:07:05;;;;;;;6.07;5.57;;;;;;;23.95;34.30;99392.38;6997932;28;20212;-84
2023/05/03 11:10:28;;;;;;;8.80;5.80;;;;;;;22.47;34.95;99420.06;6997066;28;20556;-81
2023/05/03 11:13:52;;;;;;;5.90;5.30;;;;;;;23.10;35.79;99471.22;6997499;28;20218;-87
2023/05/03 11:17:20;;;;;;;6.77;5.60;;;;;;;23.67;34.53;99400.34;6997062;28;20224;-84
2023/05/03 11:20:45;;;;;;;5.83;5.23;;;;;;;24.37;32.65;99364.47;6985924;28;20322;-83
2023/05/03 11:24:11;;;;;;;11.30;8.50;;;;;;;22.51;34.08;99348.88;6997309;28;20257;-85
2023/05/03 11:27:33;;;;;;;42.40;33.93;;;;;;;23.25;34.29;99457.56;6971836;28;20219;-86
2023/05/03 11:30:55;;;;;;;5.00;4.50;;;;;;;24.38;33.54;99451.56;6970626;28;20252;-86
2023/05/03 11:34:17;;;;;;;5.67;5.10;;;;;;;23.81;33.66;99423.47;6971681;28;20214;-85
2023/05/03 11:37:38;;;;;;;5.07;4.57;;;;;;;25.52;31.05;99431.00;6971861;28;20209;-87
2023/05/03 11:41:11;;;;;;;4.97;4.47;;;;;;;25.06;30.36;99440.59;6971153;28;20240;-89
2023/05/03 11:44:34;;;;;;;5.27;4.80;;;;;;;24.10;31.42;99399.78;6969867;28;20233;-89
2023/05/03 11:47:56;;;;;;;5.27;4.40;;;;;;;23.81;30.91;99366.47;6971496;28;20213;-86
2023/05/03 11:51:22;;;;;;;4.93;4.50;;;;;;;24.89;30.16;99384.16;6978204;28;20221;-85
2023/05/03 11:54:45;;;;;;;5.07;3.93;;;;;;;25.65;27.59;99391.66;6997475;28;20223;-88
2023/05/03 11:58:13;;;;;;;6.07;4.40;;;;;;;24.04;31.34;99418.28;6997617;28;20221;-89
2023/05/03 12:01:35;;;;;;;6.83;5.10;;;;;;;24.51;29.68;99382.88;6998605;28;20315;-90
2023/05/03 12:04:57;;;;;;;4.50;4.10;;;;;;;22.85;33.00;99394.13;6998142;28;20570;-90
2023/05/03 12:08:20;;;;;;;4.63;4.23;;;;;;;23.86;30.99;99374.75;6998444;28;20565;-84
2023/05/03 12:11:42;;;;;;;6.20;5.60;;;;;;;23.54;29.89;99343.09;6996934;28;20243;-87
2023/05/03 12:15:06;;;;;;;4.23;3.93;;;;;;;23.95;30.53;99348.31;6981546;28;20216;-88
2023/05/03 12:18:28;;;;;;;4.07;3.67;;;;;;;24.70;29.96;99336.22;6980601;22;20253;-86
2023/05/03 12:21:52;;;;;;;4.03;3.57;;;;;;;25.20;28.67;99328.47;6968317;28;20227;-86
2023/05/03 12:25:16;;;;;;;4.70;4.00;;;;;;;23.37;30.76;99315.81;6976254;28;20327;-86
2023/05/03 12:28:44;;;;;;;3.90;3.60;;;;;;;23.68;30.37;99335.91;6970643;28;20221;-85
2023/05/03 12:32:07;;;;;;;4.97;4.40;;;;;;;24.08;30.51;99363.44;6987594;23;20728;-87
2023/05/03 12:35:29;;;;;;;4.17;3.80;;;;;;;25.54;29.37;99383.75;6990603;28;20239;-88
2023/05/03 12:38:50;;;;;;;5.63;3.43;;;;;;;25.96;28.63;99372.91;6990935;28;20226;-86
2023/05/03 12:42:12;;;;;;;4.50;4.10;;;;;;;24.04;28.59;99406.41;6983344;28;20205;-86
2023/05/03 12:45:33;;;;;;;5.83;4.20;;;;;;;23.08;29.37;99358.69;6982672;28;20230;-87
2023/05/03 12:48:56;;;;;;;3.87;3.47;;;;;;;22.06;31.21;99354.97;6982497;28;20201;-87
2023/05/03 12:52:24;;;;;;;5.37;3.83;;;;;;;23.26;30.39;99338.94;6980085;28;20228;-87
2023/05/03 12:55:53;;;;;;;4.57;3.37;;;;;;;24.23;27.65;99254.00;6975476;28;20951;-87
2023/05/03 12:59:15;;;;;;;3.60;3.30;;;;;;;24.83;26.35;99261.13;6981027;28;20226;-87
2023/05/03 13:02:41;;;;;;;3.10;2.83;;;;;;;24.22;26.79;99238.56;6982894;28;20708;-88
2023/05/03 13:06:06;;;;;;;4.03;3.40;;;;;;;23.63;26.92;99256.06;6982318;28;20254;-87
2023/05/03 13:09:28;;;;;;;4.67;3.37;;;;;;;24.67;26.58;99298.19;6966101;28;20295;-87
2023/05/03 13:12:50;;;;;;;3.43;2.93;;;;;;;25.09;25.78;99353.66;6980362;28;20206;-88
2023/05/03 13:16:12;;;;;;;3.50;3.17;;;;;;;24.22;26.94;99244.06;6965636;28;20229;-87
2023/05/03 13:19:35;;;;;;;3.60;3.30;;;;;;;24.16;26.85;99253.47;6958142;28;20218;-88
2023/05/03 13:23:01;;;;;;;3.17;2.93;;;;;;;23.23;26.44;99311.13;6959270;28;20691;-87
2023/05/03 13:26:23;;;;;;;2.87;2.67;;;;;;;23.30;27.01;99229.97;6959254;28;20232;-87
2023/05/03 13:29:45;;;;;;;3.87;2.70;;;;;;;24.79;23.96;99301.44;6954338;28;20211;-87
2023/05/03 13:33:10;;;;;;;2.90;2.63;;;;;;;24.98;23.87;99214.94;6952668;28;20211;-87
2023/05/03 13:36:32;;;;;;;3.27;3.03;;;;;;;24.92;26.43;99183.00;6953330;28;20218;-87
2023/05/03 13:39:55;;;;;;;4.03;3.20;;;;;;;26.26;25.01;99287.72;6953504;28;20296;-87
2023/05/03 13:43:17;;;;;;;3.37;3.07;;;;;;;24.69;27.21;99288.53;6953291;28;20215;-87
2023/05/03 13:46:39;;;;;;;4.23;3.57;;;;;;;23.32;27.08;99282.81;6953562;28;20601;-87
2023/05/03 13:50:04;;;;;;;3.17;2.60;;;;;;;24.59;26.87;99307.88;6958005;28;20204;-87
2023/05/03 13:53:30;;;;;;;3.03;2.60;;;;;;;25.85;24.11;99333.50;6981188;28;20213;-87
2023/05/03 13:56:57;;;;;;;4.00;3.00;;;;;;;24.14;25.29;99236.38;6981021;28;20325;-87
2023/05/03 14:00:19;;;;;;;3.93;3.40;;;;;;;25.32;24.83;99272.94;6981322;28;20228;-87
2023/05/03 14:03:41;;;;;;;3.20;2.90;;;;;;;25.43;25.46;99219.28;6980718;28;20672;-87
2023/05/03 14:07:03;;;;;;;3.33;3.03;;;;;;;24.97;24.33;99249.16;6980816;28;20740;-87
2023/05/03 14:10:24;;;;;;;3.27;2.70;;;;;;;24.69;25.45;99299.56;6982219;28;20285;-86
2023/05/03 14:13:50;;;;;;;3.80;3.27;;;;;;;23.01;27.11;99236.28;6981337;28;20217;-87
2023/05/03 14:17:11;;;;;;;4.97;3.27;;;;;;;21.39;28.95;99180.22;6982301;28;20303;-87
2023/05/03 14:20:33;;;;;;;3.23;3.00;;;;;;;23.59;27.26;99275.06;6982055;28;20830;-86
2023/05/03 14:23:57;;;;;;;3.37;3.07;;;;;;;23.57;27.10;99274.53;6981223;28;20235;-86
2023/05/03 14:27:20;;;;;;;4.03;3.03;;;;;;;23.15;26.52;99155.69;6981551;28;20218;-87
2023/05/03 14:30:43;;;;;;;4.13;3.00;;;;;;;22.94;27.58;99255.81;6981731;28;20214;-86
2023/05/03 14:34:05;;;;;;;3.73;2.93;;;;;;;23.87;26.19;99270.88;6981051;28;20241;-86
2023/05/03 14:37:26;;;;;;;2.90;2.70;;;;;;;25.05;24.85;99251.31;6984676;28;20201;-87
2023/05/03 14:40:48;;;;;;;3.20;2.90;;;;;;;23.03;27.00;99207.41;6984036;28;20296;-86
2023/05/03 14:44:10;;;;;;;3.23;2.87;;;;;;;22.07;29.05;99183.56;6983924;28;21178;-85
2023/05/03 14:47:33;;;;;;;2.73;2.53;;;;;;;23.21;26.81;99250.06;6985605;28;20253;-88
2023/05/03 14:50:55;;;;;;;3.40;2.50;;;;;;;24.05;26.53;99176.63;6983684;28;20215;-87
2023/05/03 14:54:16;;;;;;;3.63;2.50;;;;;;;24.01;25.85;99250.75;6980710;28;20230;-88
2023/05/03 14:57:38;;;;;;;3.40;3.10;;;;;;;23.66;24.92;99205.97;6983202;28;20221;-87
2023/05/03 15:01:00;;;;;;;4.53;3.27;;;;;;;23.73;24.93;99234.84;6981908;28;20580;-87
2023/05/03 15:04:23;;;;;;;2.93;2.63;;;;;;;22.72;25.83;99131.50;6981225;28;20749;-88
2023/05/03 15:07:46;;;;;;;3.00;2.60;;;;;;;23.76;25.28;99241.72;6993421;28;20667;-87
2023/05/03 15:11:08;;;;;;;3.93;3.00;;;;;;;23.48;25.55;99174.34;6984052;28;20205;-87
2023/05/03 15:14:30;;;;;;;2.67;2.47;;;;;;;23.97;26.95;99213.03;6981166;28;20238;-87
2023/05/03 15:17:51;;;;;;;3.23;2.80;;;;;;;25.06;25.14;99271.44;6982077;28;20202;-87
2023/05/03 15:21:15;;;;;;;4.00;2.60;;;;;;;24.52;24.72;99243.91;6982790;28;20250;-86
2023/05/03 15:24:37;;;;;;;2.93;2.60;;;;;;;24.09;24.30;99172.22;6982735;28;20415;-87
2023/05/03 15:27:58;;;;;;;3.20;2.90;;;;;;;24.04;24.85;99258.47;6984147;28;20216;-87
2023/05/03 15:31:20;;;;;;;3.00;2.50;;;;;;;24.27;24.42;99259.75;6983834;28;20294;-87
2023/05/03 15:34:42;;;;;;;2.93;2.73;;;;;;;23.98;23.71;99233.97;6982791;28;20804;-86
2023/05/03 15:38:05;;;;;;;3.50;2.43;;;;;;;24.47;25.08;99254.97;6981469;28;20607;-86
2023/05/03 15:41:26;;;;;;;2.60;2.40;;;;;;;24.10;25.22;99248.25;6956214;28;20228;-86
2023/05/03 15:44:50;;;;;;;2.83;2.63;;;;;;;24.03;24.75;99176.09;6955372;28;20548;-87
2023/05/03 15:48:11;;;;;;;3.30;3.00;;;;;;;24.87;25.54;99257.50;6955585;28;20212;-89
2023/05/03 15:51:33;;;;;;;2.70;2.50;;;;;;;23.89;25.64;99247.50;6951581;28;20219;-88
2023/05/03 15:54:56;;;;;;;3.83;2.63;;;;;;;23.13;25.62;99203.81;6953921;28;20226;-87
2023/05/03 15:58:18;;;;;;;2.73;2.53;;;;;;;23.93;26.30;99233.97;6954942;28;20220;-87
2023/05/03 16:01:39;;;;;;;2.70;2.50;;;;;;;23.88;25.78;99143.94;6976275;28;20233;-87